Time;durP1;ratioP1;P1;durP2;ratioP2;P2;SDS_P1;SDS_P2;PMS_P1;PMS_P2;Temp;Humidity;BMP_temperature;BMP_pressure;BME280_temperature;BME280_humidity;BME280_pressure;Samples;Min_cycle;Max_cycle;Signal;HPM_P1;HPM_P2
2023/12/03 00:00:32;;;;;;;0.00;0.00;;;1.20;91.00;;;;;;5025580;28;20131;-72
2023/12/03 00:02:57;;;;;;;0.10;0.10;;;1.20;91.00;;;;;;5027452;28;20510;-72
2023/12/03 00:05:23;;;;;;;0.00;0.00;;;1.20;91.10;;;;;;5035911;28;20305;-72
2023/12/03 00:07:50;;;;;;;0.00;0.00;;;1.20;91.10;;;;;;5031178;28;20670;-72
2023/12/03 00:10:15;;;;;;;0.00;0.00;;;1.30;91.20;;;;;;5030424;28;20518;-72
2023/12/03 00:12:41;;;;;;;0.00;0.00;;;1.20;91.30;;;;;;5025326;28;20046;-72
2023/12/03 00:15:07;;;;;;;0.00;0.00;;;1.30;91.30;;;;;;5031289;28;20038;-72
2023/12/03 00:17:33;;;;;;;0.05;0.05;;;1.20;91.30;;;;;;5029144;28;20048;-72
2023/12/03 00:19:58;;;;;;;0.05;0.05;;;1.20;91.40;;;;;;5030863;28;20045;-72
2023/12/03 00:22:24;;;;;;;0.10;0.10;;;1.20;91.40;;;;;;5029560;28;20069;-72
2023/12/03 00:24:50;;;;;;;0.00;0.00;;;1.30;91.40;;;;;;5029232;28;20037;-72
2023/12/03 00:27:16;;;;;;;0.00;0.00;;;1.20;91.40;;;;;;5032168;28;20484;-72
2023/12/03 00:29:41;;;;;;;0.00;0.00;;;1.20;91.60;;;;;;5040082;28;20065;-72
2023/12/03 00:32:07;;;;;;;0.35;0.35;;;1.20;91.50;;;;;;5029711;28;20060;-72
2023/12/03 00:34:33;;;;;;;0.00;0.00;;;1.20;91.50;;;;;;5040818;28;20037;-72
2023/12/03 00:36:58;;;;;;;0.00;0.00;;;1.20;91.50;;;;;;5032343;28;20131;-72
2023/12/03 00:39:24;;;;;;;0.00;0.00;;;1.20;91.50;;;;;;5048972;28;20037;-72
2023/12/03 00:41:49;;;;;;;0.00;0.00;;;1.20;91.50;;;;;;5042557;28;20094;-73
2023/12/03 00:44:15;;;;;;;0.00;0.00;;;1.20;91.60;;;;;;5014285;28;20068;-72
2023/12/03 00:46:41;;;;;;;0.00;0.00;;;1.30;91.60;;;;;;5032186;28;20049;-72
2023/12/03 00:49:07;;;;;;;0.00;0.00;;;1.30;91.40;;;;;;5030450;28;20052;-73
2023/12/03 00:51:32;;;;;;;0.00;0.00;;;1.30;91.40;;;;;;5042886;28;20049;-72
2023/12/03 00:53:58;;;;;;;0.00;0.00;;;1.20;91.40;;;;;;5012799;28;20046;-72
2023/12/03 00:56:23;;;;;;;0.00;0.00;;;1.30;91.40;;;;;;5012276;28;20045;-72
2023/12/03 00:58:49;;;;;;;0.00;0.00;;;1.20;91.50;;;;;;5045684;28;20067;-73
2023/12/03 01:01:15;;;;;;;0.05;0.05;;;1.20;91.50;;;;;;5044999;28;20759;-72
2023/12/03 01:03:40;;;;;;;0.00;0.00;;;1.30;91.40;;;;;;5021353;28;20048;-72
2023/12/03 01:06:06;;;;;;;0.10;0.10;;;1.30;91.30;;;;;;5019858;28;20049;-72
2023/12/03 01:08:32;;;;;;;0.00;0.00;;;1.40;91.20;;;;;;5029971;28;20054;-72
2023/12/03 01:10:58;;;;;;;0.00;0.00;;;1.40;91.20;;;;;;5029419;28;20060;-72
2023/12/03 01:13:23;;;;;;;0.00;0.00;;;1.50;91.20;;;;;;5011861;28;20072;-72
2023/12/03 01:15:49;;;;;;;0.00;0.00;;;1.40;91.20;;;;;;5011673;28;20081;-72
2023/12/03 01:18:14;;;;;;;0.00;0.00;;;1.60;91.30;;;;;;5011833;28;20129;-72
2023/12/03 01:20:40;;;;;;;0.00;0.00;;;1.50;91.20;;;;;;5020416;28;20045;-72
2023/12/03 01:23:06;;;;;;;0.00;0.00;;;1.50;91.20;;;;;;5012244;28;20099;-72
2023/12/03 01:25:31;;;;;;;0.10;0.10;;;1.60;91.30;;;;;;5012092;28;20057;-72
2023/12/03 01:27:57;;;;;;;0.00;0.00;;;1.60;91.50;;;;;;5049126;28;20060;-72
2023/12/03 01:30:23;;;;;;;0.00;0.00;;;1.60;91.40;;;;;;5039380;28;20077;-72
2023/12/03 01:32:48;;;;;;;0.00;0.00;;;1.60;91.40;;;;;;5030771;28;20057;-72
2023/12/03 01:35:14;;;;;;;0.00;0.00;;;1.60;91.50;;;;;;5049080;28;20045;-72
2023/12/03 01:37:40;;;;;;;0.00;0.00;;;1.60;91.50;;;;;;5048391;28;20526;-72
2023/12/03 01:40:07;;;;;;;0.00;0.00;;;1.60;91.50;;;;;;5041296;28;20046;-72
2023/12/03 01:42:33;;;;;;;0.00;0.00;;;1.60;91.50;;;;;;5029713;28;20123;-72
2023/12/03 01:44:59;;;;;;;0.00;0.00;;;1.60;91.40;;;;;;5048904;28;20041;-72
2023/12/03 01:47:25;;;;;;;0.00;0.00;;;1.60;91.40;;;;;;5048389;28;20615;-73
2023/12/03 01:49:51;;;;;;;0.00;0.00;;;1.60;91.40;;;;;;5025115;28;20081;-72
2023/12/03 01:52:17;;;;;;;0.10;0.10;;;1.60;91.40;;;;;;5028895;28;20033;-72
2023/12/03 01:54:44;;;;;;;0.00;0.00;;;1.60;91.30;;;;;;5013655;28;20045;-72
2023/12/03 01:57:10;;;;;;;0.22;0.22;;;1.60;91.40;;;;;;5048418;28;20118;-72
2023/12/03 01:59:36;;;;;;;0.00;0.00;;;1.50;91.30;;;;;;5044828;28;20056;-72
2023/12/03 02:02:03;;;;;;;0.65;0.65;;;1.60;91.30;;;;;;5013919;28;20048;-72
2023/12/03 02:04:28;;;;;;;0.00;0.00;;;1.50;91.40;;;;;;5046026;28;20824;-72
2023/12/03 02:06:54;;;;;;;0.00;0.00;;;1.40;91.40;;;;;;5034874;28;20045;-72
2023/12/03 02:09:20;;;;;;;0.00;0.00;;;1.50;91.40;;;;;;4993779;28;20107;-72
2023/12/03 02:11:46;;;;;;;0.00;0.00;;;1.50;91.50;;;;;;5028521;28;20045;-72
2023/12/03 02:14:12;;;;;;;0.57;0.57;;;1.50;91.60;;;;;;5010446;28;20454;-72
2023/12/03 02:16:43;;;;;;;0.00;0.00;;;1.60;91.50;;;;;;5027977;28;20579;-72
2023/12/03 02:19:08;;;;;;;0.00;0.00;;;1.60;91.40;;;;;;5016634;28;20046;-72
2023/12/03 02:21:34;;;;;;;0.00;0.00;;;1.60;91.30;;;;;;5027550;28;20049;-72
2023/12/03 02:24:00;;;;;;;0.00;0.00;;;1.50;91.20;;;;;;5039024;28;20053;-72
2023/12/03 02:26:25;;;;;;;0.05;0.05;;;1.50;91.00;;;;;;5035946;28;20075;-72
2023/12/03 02:28:51;;;;;;;0.00;0.00;;;1.40;91.10;;;;;;5008627;28;20057;-72
2023/12/03 02:31:17;;;;;;;0.00;0.00;;;1.60;91.50;;;;;;5028483;28;20500;-72
2023/12/03 02:33:53;;;;;;;0.00;0.00;;;1.70;91.90;;;;;;5013025;28;20128;-72
2023/12/03 02:36:18;;;;;;;0.65;0.65;;;1.60;91.70;;;;;;5047898;28;20045;-72
2023/12/03 02:38:44;;;;;;;0.00;0.00;;;1.60;91.80;;;;;;5020623;28;20510;-72
2023/12/03 02:41:09;;;;;;;0.00;0.00;;;1.60;91.80;;;;;;5028118;28;20045;-72
2023/12/03 02:43:35;;;;;;;0.00;0.00;;;1.60;91.70;;;;;;5013133;28;20052;-72
2023/12/03 02:46:01;;;;;;;0.00;0.00;;;1.60;91.80;;;;;;5029794;28;20558;-72
2023/12/03 02:48:26;;;;;;;0.00;0.00;;;1.70;91.80;;;;;;5040939;28;20038;-72
2023/12/03 02:50:52;;;;;;;0.00;0.00;;;1.70;91.80;;;;;;5012344;28;20510;-72
2023/12/03 02:53:17;;;;;;;0.00;0.00;;;1.70;91.80;;;;;;5018074;28;20057;-72
2023/12/03 02:55:43;;;;;;;0.00;0.00;;;1.70;91.70;;;;;;5047675;28;20484;-72
2023/12/03 02:58:08;;;;;;;0.00;0.00;;;1.70;91.50;;;;;;5047621;28;20117;-73
2023/12/03 03:00:34;;;;;;;0.10;0.10;;;1.70;91.60;;;;;;5046204;28;20052;-72
2023/12/03 03:03:00;;;;;;;0.03;0.03;;;1.70;91.50;;;;;;5019820;28;20144;-73
2023/12/03 03:05:25;;;;;;;0.00;0.00;;;1.70;91.50;;;;;;5027660;28;20049;-73
2023/12/03 03:07:51;;;;;;;0.00;0.00;;;1.70;91.40;;;;;;5027504;28;20227;-73
2023/12/03 03:10:17;;;;;;;0.00;0.00;;;1.70;91.20;;;;;;5027300;28;20053;-73
2023/12/03 03:12:42;;;;;;;0.00;0.00;;;1.70;91.20;;;;;;5009631;28;20057;-72
2023/12/03 03:15:08;;;;;;;0.05;0.05;;;1.70;91.20;;;;;;5027706;28;20053;-72
2023/12/03 03:17:34;;;;;;;0.00;0.00;;;1.70;91.20;;;;;;5026733;28;20045;-73
2023/12/03 03:20:00;;;;;;;0.00;0.00;;;1.70;91.10;;;;;;5033872;28;20041;-73
2023/12/03 03:22:25;;;;;;;0.00;0.00;;;1.70;91.00;;;;;;5027521;28;20403;-73
2023/12/03 03:24:52;;;;;;;0.10;0.10;;;1.70;91.00;;;;;;5034218;28;20101;-73
2023/12/03 03:27:17;;;;;;;0.00;0.00;;;1.70;90.90;;;;;;5029049;28;20045;-73
2023/12/03 03:29:43;;;;;;;0.00;0.00;;;1.70;90.90;;;;;;5027739;28;20049;-72
2023/12/03 03:32:09;;;;;;;0.00;0.00;;;1.70;90.80;;;;;;5047738;28;20053;-73
2023/12/03 03:34:35;;;;;;;0.00;0.00;;;1.60;90.70;;;;;;5009832;28;20100;-72
2023/12/03 03:37:00;;;;;;;0.20;0.20;;;1.70;90.70;;;;;;5027468;28;20507;-73
2023/12/03 03:39:26;;;;;;;0.00;0.00;;;1.60;90.60;;;;;;5026456;28;20041;-73
2023/12/03 03:41:51;;;;;;;0.00;0.00;;;1.70;90.60;;;;;;5026517;28;20488;-73
2023/12/03 03:44:17;;;;;;;0.00;0.00;;;1.60;90.50;;;;;;5012260;28;20090;-72
2023/12/03 03:46:43;;;;;;;0.17;0.17;;;1.70;90.50;;;;;;5046158;28;20108;-73
2023/12/03 03:49:09;;;;;;;0.00;0.00;;;1.70;90.50;;;;;;5031897;28;20132;-73
2023/12/03 03:51:35;;;;;;;0.00;0.00;;;1.60;90.40;;;;;;5038929;28;20053;-72
2023/12/03 03:54:00;;;;;;;0.05;0.05;;;1.70;90.40;;;;;;5032339;28;20515;-73
2023/12/03 03:56:26;;;;;;;0.00;0.00;;;1.70;90.30;;;;;;5027130;28;20045;-72
2023/12/03 03:58:52;;;;;;;0.00;0.00;;;1.60;90.30;;;;;;5026387;28;20057;-73
2023/12/03 04:01:17;;;;;;;0.00;0.00;;;1.60;90.30;;;;;;5008639;28;20038;-73
2023/12/03 04:03:43;;;;;;;0.00;0.00;;;1.60;90.20;;;;;;5008726;28;20053;-73
2023/12/03 04:06:09;;;;;;;0.00;0.00;;;1.60;90.10;;;;;;5027013;28;20856;-73
2023/12/03 04:08:34;;;;;;;0.05;0.05;;;1.60;90.10;;;;;;5008658;28;20041;-73
2023/12/03 04:11:04;;;;;;;0.25;0.25;;;1.60;89.90;;;;;;5033625;28;20066;-73
2023/12/03 04:13:30;;;;;;;0.00;0.00;;;1.50;89.90;;;;;;5036139;28;20077;-72
2023/12/03 04:15:56;;;;;;;0.68;0.68;;;1.50;89.80;;;;;;5025949;28;20148;-73
2023/12/03 04:18:22;;;;;;;0.00;0.00;;;1.50;89.90;;;;;;5046133;28;20102;-72
2023/12/03 04:20:48;;;;;;;0.00;0.00;;;1.50;89.80;;;;;;5039864;28;20038;-73
2023/12/03 04:23:14;;;;;;;0.00;0.00;;;1.50;89.80;;;;;;5033326;28;20036;-73
2023/12/03 04:25:39;;;;;;;0.00;0.00;;;1.50;89.80;;;;;;5046168;28;20045;-73
2023/12/03 04:28:05;;;;;;;0.00;0.00;;;1.50;89.80;;;;;;5040587;28;20057;-73
2023/12/03 04:30:31;;;;;;;0.00;0.00;;;1.50;89.70;;;;;;5046208;28;20076;-73
2023/12/03 04:32:57;;;;;;;0.00;0.00;;;1.40;89.60;;;;;;5044856;28;20119;-73
2023/12/03 04:35:22;;;;;;;0.08;0.08;;;1.50;89.60;;;;;;5025487;28;20049;-73
2023/12/03 04:37:48;;;;;;;0.00;0.00;;;1.40;89.60;;;;;;5025739;28;20053;-73
2023/12/03 04:40:15;;;;;;;0.00;0.00;;;1.40;89.60;;;;;;5026506;28;20092;-73
2023/12/03 04:42:40;;;;;;;0.00;0.00;;;1.40;89.40;;;;;;5028492;28;20057;-73
2023/12/03 04:45:07;;;;;;;0.00;0.00;;;1.40;89.40;;;;;;5045451;28;20039;-73
2023/12/03 04:47:32;;;;;;;0.00;0.00;;;1.30;89.40;;;;;;5034775;28;20037;-73
2023/12/03 04:49:58;;;;;;;0.00;0.00;;;1.30;89.40;;;;;;5028578;28;20090;-73
2023/12/03 04:52:24;;;;;;;0.00;0.00;;;1.30;89.40;;;;;;5037091;28;20037;-73
2023/12/03 04:54:49;;;;;;;0.10;0.10;;;1.40;89.40;;;;;;5008890;28;20061;-72
2023/12/03 04:57:15;;;;;;;0.00;0.00;;;1.30;89.40;;;;;;5000080;28;20487;-72
2023/12/03 04:59:40;;;;;;;0.00;0.00;;;1.40;89.40;;;;;;5042849;28;20049;-73
2023/12/03 05:02:06;;;;;;;0.00;0.00;;;1.30;89.40;;;;;;5031907;28;20041;-70
2023/12/03 05:04:31;;;;;;;0.00;0.00;;;1.30;89.40;;;;;;5021453;28;20050;-74
2023/12/03 05:06:57;;;;;;;0.00;0.00;;;1.30;89.40;;;;;;5009835;28;20401;-73
2023/12/03 05:09:23;;;;;;;0.00;0.00;;;1.40;89.40;;;;;;5004600;28;20115;-73
2023/12/03 05:11:49;;;;;;;0.00;0.00;;;1.40;89.40;;;;;;5011981;28;20562;-73
2023/12/03 05:14:14;;;;;;;0.00;0.00;;;1.40;89.40;;;;;;5027891;28;20593;-73
2023/12/03 05:16:40;;;;;;;0.00;0.00;;;1.40;89.30;;;;;;5029015;28;20107;-73
2023/12/03 05:19:06;;;;;;;0.00;0.00;;;1.40;89.40;;;;;;5014147;28;20041;-73
2023/12/03 05:21:31;;;;;;;0.00;0.00;;;1.40;89.40;;;;;;5049141;28;20127;-73
2023/12/03 05:23:58;;;;;;;0.00;0.00;;;1.50;89.40;;;;;;5030193;28;20041;-73
2023/12/03 05:26:24;;;;;;;0.28;0.28;;;1.40;89.30;;;;;;5020278;28;20107;-73
2023/12/03 05:28:50;;;;;;;0.10;0.10;;;1.50;89.40;;;;;;5023155;28;20049;-73
2023/12/03 05:31:15;;;;;;;0.00;0.00;;;1.50;89.40;;;;;;5022611;28;20057;-73
2023/12/03 05:33:41;;;;;;;0.03;0.03;;;1.40;89.30;;;;;;5012276;28;20041;-73
2023/12/03 05:36:08;;;;;;;0.00;0.00;;;1.40;89.20;;;;;;5039560;28;20107;-73
2023/12/03 05:38:34;;;;;;;0.00;0.00;;;1.40;89.10;;;;;;5011134;28;20052;-74
2023/12/03 05:40:59;;;;;;;0.38;0.38;;;1.40;89.20;;;;;;5025167;28;20053;-73
2023/12/03 05:43:25;;;;;;;0.00;0.00;;;1.40;89.10;;;;;;5017094;28;20568;-73
2023/12/03 05:45:50;;;;;;;0.00;0.00;;;1.40;89.10;;;;;;5008328;28;20539;-73
2023/12/03 05:48:16;;;;;;;0.00;0.00;;;1.30;89.00;;;;;;5020394;28;20076;-74
2023/12/03 05:50:42;;;;;;;0.30;0.30;;;1.30;89.00;;;;;;4998249;28;20065;-74
2023/12/03 05:53:07;;;;;;;0.08;0.08;;;1.30;89.00;;;;;;5035023;28;20144;-74
2023/12/03 05:55:33;;;;;;;0.00;0.00;;;1.30;89.10;;;;;;5012552;28;20817;-74
2023/12/03 05:57:59;;;;;;;0.08;0.08;;;1.30;89.00;;;;;;5027543;28;20683;-73
2023/12/03 06:00:24;;;;;;;0.00;0.00;;;1.20;88.90;;;;;;5009173;28;20096;-73
2023/12/03 06:02:50;;;;;;;0.00;0.00;;;1.20;89.00;;;;;;5004117;28;20467;-73
2023/12/03 06:05:16;;;;;;;0.08;0.08;;;1.20;88.90;;;;;;5029336;28;20048;-73
2023/12/03 06:07:41;;;;;;;0.00;0.00;;;1.20;88.90;;;;;;5024131;28;20037;-73
2023/12/03 06:10:10;;;;;;;0.00;0.00;;;1.10;88.60;;;;;;5027622;28;20061;-74
2023/12/03 06:12:36;;;;;;;0.15;0.15;;;1.10;88.90;;;;;;5035375;28;20045;-73
2023/12/03 06:15:03;;;;;;;1.20;1.10;;;1.10;88.90;;;;;;5007707;28;20124;-73
2023/12/03 06:17:29;;;;;;;0.10;0.10;;;1.00;88.90;;;;;;5026230;28;20092;-73
2023/12/03 06:19:54;;;;;;;0.08;0.08;;;1.00;89.00;;;;;;5003516;28;20048;-72
2023/12/03 06:22:20;;;;;;;0.00;0.00;;;1.10;89.10;;;;;;5034158;28;20499;-72
2023/12/03 06:24:45;;;;;;;0.00;0.00;;;1.10;89.20;;;;;;5003769;28;20123;-72
2023/12/03 06:27:11;;;;;;;0.00;0.00;;;1.20;89.30;;;;;;5004124;28;20080;-72
2023/12/03 06:29:36;;;;;;;0.00;0.00;;;1.10;89.20;;;;;;5013838;28;20053;-72
2023/12/03 06:32:02;;;;;;;0.00;0.00;;;1.20;89.40;;;;;;5023750;28;20042;-72
2023/12/03 06:34:29;;;;;;;0.00;0.00;;;1.20;89.50;;;;;;5007781;28;20058;-72
2023/12/03 06:36:54;;;;;;;0.00;0.00;;;1.30;89.60;;;;;;4996933;28;20788;-72
2023/12/03 06:39:20;;;;;;;0.00;0.00;;;1.30;89.60;;;;;;5046358;28;20060;-72
2023/12/03 06:41:46;;;;;;;0.00;0.00;;;1.30;89.70;;;;;;4997790;28;20530;-72
2023/12/03 06:44:11;;;;;;;0.08;0.08;;;1.30;89.70;;;;;;5026799;28;20088;-72
2023/12/03 06:46:40;;;;;;;0.00;0.00;;;1.40;89.80;;;;;;5027405;28;20079;-72
2023/12/03 06:49:06;;;;;;;0.08;0.08;;;1.40;90.00;;;;;;5027840;28;20048;-72
2023/12/03 06:51:32;;;;;;;0.00;0.00;;;1.40;90.10;;;;;;5031558;28;20044;-72
2023/12/03 06:53:57;;;;;;;0.00;0.00;;;1.50;90.20;;;;;;5045955;28;20047;-72
2023/12/03 06:56:23;;;;;;;0.00;0.00;;;1.60;90.20;;;;;;5018965;28;20045;-72
2023/12/03 06:58:49;;;;;;;0.00;0.00;;;1.60;90.20;;;;;;5008506;28;20044;-72
2023/12/03 07:01:14;;;;;;;0.00;0.00;;;1.60;90.20;;;;;;5016587;28;20053;-72
2023/12/03 07:03:40;;;;;;;0.00;0.00;;;1.60;90.20;;;;;;5015712;28;20052;-72
2023/12/03 07:06:06;;;;;;;0.20;0.20;;;1.60;90.20;;;;;;5001825;28;20132;-72
2023/12/03 07:08:31;;;;;;;0.10;0.10;;;1.70;90.20;;;;;;5005533;28;20041;-69
2023/12/03 07:10:57;;;;;;;0.00;0.00;;;1.70;90.20;;;;;;5021430;28;20094;-72
2023/12/03 07:13:22;;;;;;;0.00;0.00;;;1.70;90.30;;;;;;5016218;28;20029;-72
2023/12/03 07:15:48;;;;;;;0.00;0.00;;;1.70;90.40;;;;;;5017662;28;20096;-72
2023/12/03 07:18:14;;;;;;;0.00;0.00;;;1.80;90.40;;;;;;5019027;28;20049;-72
2023/12/03 07:20:40;;;;;;;0.00;0.00;;;1.70;90.50;;;;;;5022389;28;20053;-71
2023/12/03 07:23:05;;;;;;;0.10;0.10;;;1.80;90.50;;;;;;5021099;28;20816;-72
2023/12/03 07:25:31;;;;;;;0.05;0.05;;;1.90;90.50;;;;;;4993341;28;20117;-72
2023/12/03 07:27:57;;;;;;;0.00;0.00;;;1.90;90.50;;;;;;5024005;28;20515;-72
2023/12/03 07:30:24;;;;;;;0.08;0.08;;;1.90;90.40;;;;;;5024974;28;20105;-71
2023/12/03 07:32:49;;;;;;;0.00;0.00;;;1.90;90.40;;;;;;5026090;28;20102;-72
2023/12/03 07:35:15;;;;;;;0.08;0.08;;;1.90;90.50;;;;;;5012859;28;20059;-71
2023/12/03 07:37:41;;;;;;;0.10;0.10;;;1.90;90.40;;;;;;4996455;28;20432;-72
2023/12/03 07:40:09;;;;;;;0.20;0.20;;;2.00;90.50;;;;;;5027862;28;20049;-72
2023/12/03 07:42:34;;;;;;;0.05;0.05;;;1.90;90.40;;;;;;5019368;28;20069;-72
2023/12/03 07:45:00;;;;;;;0.00;0.00;;;1.90;90.50;;;;;;5020732;28;20057;-72
2023/12/03 07:47:26;;;;;;;0.00;0.00;;;1.90;90.60;;;;;;5001720;28;20045;-72
2023/12/03 07:49:52;;;;;;;0.10;0.10;;;2.00;90.60;;;;;;5005736;28;20069;-72
2023/12/03 07:52:19;;;;;;;0.00;0.00;;;1.90;90.60;;;;;;5025920;28;20514;-73
2023/12/03 07:54:44;;;;;;;3.47;2.47;;;1.90;90.60;;;;;;5022108;28;20459;-73
2023/12/03 07:57:10;;;;;;;0.00;0.00;;;2.00;90.70;;;;;;5025949;28;20060;-73
2023/12/03 07:59:36;;;;;;;0.00;0.00;;;2.00;90.40;;;;;;5029592;28;20103;-73
2023/12/03 08:02:01;;;;;;;0.00;0.00;;;2.00;90.80;;;;;;5046773;28;20049;-73
2023/12/03 08:04:27;;;;;;;0.10;0.10;;;2.10;90.70;;;;;;5030632;28;20144;-73
2023/12/03 08:06:53;;;;;;;0.00;0.00;;;2.10;90.70;;;;;;5026359;28;20061;-73
2023/12/03 08:09:18;;;;;;;0.10;0.10;;;2.00;90.60;;;;;;5025797;28;20420;-73
2023/12/03 08:11:44;;;;;;;0.00;0.00;;;2.10;90.70;;;;;;5020438;28;20048;-70
2023/12/03 08:14:09;;;;;;;0.30;0.30;;;2.10;90.80;;;;;;4998444;28;20096;-68
2023/12/03 08:16:35;;;;;;;0.10;0.10;;;2.10;90.80;;;;;;5024008;28;20099;-66
2023/12/03 08:19:01;;;;;;;1.55;1.45;;;2.10;90.80;;;;;;4999329;28;20049;-66
2023/12/03 08:21:26;;;;;;;0.05;0.05;;;2.10;90.80;;;;;;5020320;28;20073;-67
2023/12/03 08:23:52;;;;;;;0.00;0.00;;;2.10;90.80;;;;;;4999764;28;20077;-67
2023/12/03 08:26:17;;;;;;;0.10;0.10;;;2.20;90.80;;;;;;4999942;28;20054;-70
2023/12/03 08:28:44;;;;;;;0.00;0.00;;;2.20;90.80;;;;;;5002667;28;20068;-70
2023/12/03 08:31:10;;;;;;;0.10;0.10;;;2.10;90.60;;;;;;4998318;28;20272;-67
2023/12/03 08:33:35;;;;;;;1.08;1.00;;;2.20;90.60;;;;;;5025623;28;20059;-70
2023/12/03 08:36:01;;;;;;;0.17;0.17;;;2.20;90.70;;;;;;5026863;28;20430;-70
2023/12/03 08:38:27;;;;;;;0.00;0.00;;;2.20;90.60;;;;;;5021165;28;20048;-70
2023/12/03 08:40:52;;;;;;;0.10;0.10;;;2.20;90.50;;;;;;5006300;28;20061;-70
2023/12/03 08:43:18;;;;;;;0.00;0.00;;;2.10;90.50;;;;;;5014048;28;20073;-70
2023/12/03 08:45:44;;;;;;;0.00;0.00;;;2.20;90.60;;;;;;5011023;28;20068;-69
2023/12/03 08:48:09;;;;;;;0.10;0.10;;;2.10;90.50;;;;;;5022519;28;20051;-70
2023/12/03 08:50:35;;;;;;;0.10;0.10;;;2.00;90.60;;;;;;5002824;28;20527;-70
2023/12/03 08:53:01;;;;;;;0.10;0.10;;;2.10;90.60;;;;;;5021715;28;20534;-71
2023/12/03 08:55:26;;;;;;;1.08;0.98;;;2.10;90.60;;;;;;5021703;28;20046;-70
2023/12/03 08:57:52;;;;;;;0.10;0.10;;;2.10;90.50;;;;;;5006263;28;20104;-70
2023/12/03 09:00:18;;;;;;;0.00;0.00;;;2.00;90.50;;;;;;5005649;28;20057;-69
2023/12/03 09:02:44;;;;;;;0.10;0.10;;;2.10;90.30;;;;;;5021102;28;20049;-69
2023/12/03 09:05:10;;;;;;;0.00;0.00;;;2.10;90.50;;;;;;5016132;28;20072;-69
2023/12/03 09:07:35;;;;;;;0.00;0.00;;;2.10;90.50;;;;;;4997699;28;20070;-70
2023/12/03 09:10:01;;;;;;;0.93;0.90;;;2.10;90.50;;;;;;5031217;28;20580;-70
2023/12/03 09:12:28;;;;;;;0.85;0.68;;;2.20;90.60;;;;;;5027673;28;20049;-69
2023/12/03 09:14:53;;;;;;;0.38;0.38;;;2.20;90.40;;;;;;5005427;28;20065;-70
2023/12/03 09:17:19;;;;;;;0.82;0.77;;;2.20;90.60;;;;;;4988924;28;20474;-69
2023/12/03 09:19:45;;;;;;;0.57;0.57;;;2.20;90.50;;;;;;5019981;28;20855;-69
2023/12/03 09:22:10;;;;;;;0.10;0.10;;;2.20;90.40;;;;;;5029014;28;20042;-70
2023/12/03 09:24:36;;;;;;;0.10;0.10;;;2.20;90.30;;;;;;5026865;28;20060;-70
2023/12/03 09:27:01;;;;;;;0.00;0.00;;;2.20;90.40;;;;;;5029592;28;20408;-69
2023/12/03 09:29:27;;;;;;;0.10;0.10;;;2.20;90.30;;;;;;5023834;28;20059;-70
2023/12/03 09:31:53;;;;;;;0.05;0.05;;;2.20;90.30;;;;;;5008319;28;20053;-69
2023/12/03 09:34:18;;;;;;;0.00;0.00;;;2.20;90.30;;;;;;4993638;28;20057;-70
2023/12/03 09:36:44;;;;;;;0.57;0.50;;;2.20;90.20;;;;;;5021941;28;20100;-70
2023/12/03 09:39:09;;;;;;;0.10;0.10;;;2.20;90.20;;;;;;5016619;28;20057;-69
2023/12/03 09:41:44;;;;;;;0.00;0.00;;;2.20;90.20;;;;;;5004693;28;20056;-70
2023/12/03 09:44:21;;;;;;;0.22;0.22;;;2.10;90.00;;;;;;5028438;28;20045;-69
2023/12/03 09:46:50;;;;;;;0.03;0.03;;;2.10;90.30;;;;;;4998575;28;20049;-70
2023/12/03 09:49:19;;;;;;;0.00;0.00;;;2.10;90.50;;;;;;5004745;28;20064;-70
2023/12/03 09:51:46;;;;;;;0.10;0.10;;;2.10;90.60;;;;;;5029751;28;20124;-70
2023/12/03 09:54:11;;;;;;;0.85;0.85;;;2.00;90.40;;;;;;5026577;28;20037;-70
2023/12/03 09:56:40;;;;;;;0.10;0.10;;;2.10;90.50;;;;;;4994901;28;20468;-70
2023/12/03 09:59:08;;;;;;;0.20;0.20;;;2.10;90.70;;;;;;5001093;28;20053;-69
2023/12/03 10:01:37;;;;;;;0.10;0.10;;;2.10;90.50;;;;;;5026954;28;20045;-69
2023/12/03 10:04:04;;;;;;;0.10;0.10;;;2.10;90.30;;;;;;5028706;28;20076;-70
2023/12/03 10:06:32;;;;;;;0.10;0.10;;;2.00;90.60;;;;;;5012171;28;20499;-70
2023/12/03 10:08:59;;;;;;;0.50;0.50;;;2.00;90.40;;;;;;5020741;28;20095;-70
2023/12/03 10:11:26;;;;;;;0.32;0.32;;;1.90;90.60;;;;;;5020641;28;20041;-70
2023/12/03 10:13:54;;;;;;;0.20;0.20;;;2.00;90.70;;;;;;5025011;28;20038;-70
2023/12/03 10:16:22;;;;;;;0.10;0.10;;;2.00;90.30;;;;;;5029211;28;20029;-70
2023/12/03 10:18:49;;;;;;;3.40;1.65;;;2.00;90.60;;;;;;5007584;28;20056;-70
2023/12/03 10:21:15;;;;;;;0.38;0.38;;;2.10;90.50;;;;;;4998666;28;20088;-70
2023/12/03 10:23:41;;;;;;;0.00;0.00;;;2.00;90.50;;;;;;5021533;28;20128;-69
2023/12/03 10:26:14;;;;;;;0.45;0.45;;;2.00;90.60;;;;;;5003855;28;20500;-70
2023/12/03 10:28:41;;;;;;;1.95;1.85;;;2.10;90.60;;;;;;5018572;28;20080;-67
2023/12/03 10:31:12;;;;;;;0.00;0.00;;;2.10;90.40;;;;;;5026639;28;20045;-67
2023/12/03 10:33:38;;;;;;;1.00;0.95;;;2.10;90.30;;;;;;4983842;28;20057;-68
2023/12/03 10:36:04;;;;;;;0.10;0.10;;;2.10;90.20;;;;;;5005065;28;20143;-68
2023/12/03 10:38:38;;;;;;;0.00;0.00;;;2.10;90.10;;;;;;5008952;28;20125;-68
2023/12/03 10:41:13;;;;;;;0.10;0.10;;;2.00;89.90;;;;;;5024032;28;20053;-68
2023/12/03 10:43:41;;;;;;;0.05;0.05;;;2.00;89.80;;;;;;5008932;28;20084;-68
2023/12/03 10:46:13;;;;;;;0.00;0.00;;;1.80;89.90;;;;;;5030745;28;20072;-67
2023/12/03 10:48:39;;;;;;;0.45;0.45;;;1.80;89.90;;;;;;5009024;28;20856;-68
2023/12/03 10:51:09;;;;;;;0.13;0.13;;;1.80;89.90;;;;;;5007290;28;20045;-68
2023/12/03 10:53:37;;;;;;;0.00;0.00;;;1.80;89.70;;;;;;5023126;28;20049;-69
2023/12/03 10:56:04;;;;;;;0.43;0.43;;;1.80;89.70;;;;;;5028375;28;20132;-70
2023/12/03 10:58:33;;;;;;;0.68;0.68;;;1.70;89.90;;;;;;5030928;28;20041;-70
2023/12/03 11:01:05;;;;;;;0.00;0.00;;;1.80;89.90;;;;;;5044838;28;20090;-69
2023/12/03 11:03:48;;;;;;;0.20;0.20;;;1.80;89.80;;;;;;5036386;28;20121;-69
2023/12/03 11:06:15;;;;;;;0.10;0.10;;;1.70;90.10;;;;;;5045900;28;20067;-69
2023/12/03 11:08:41;;;;;;;0.10;0.10;;;1.70;90.10;;;;;;5029863;28;20083;-69
2023/12/03 11:11:08;;;;;;;1.13;1.10;;;1.80;90.30;;;;;;5046477;28;20089;-68
2023/12/03 11:13:35;;;;;;;0.00;0.00;;;1.80;90.10;;;;;;5028867;28;20111;-69
2023/12/03 11:16:01;;;;;;;1.08;1.08;;;1.80;90.00;;;;;;5041435;28;20049;-68
2023/12/03 11:18:29;;;;;;;0.10;0.10;;;1.80;90.00;;;;;;5024201;28;20041;-69
2023/12/03 11:21:03;;;;;;;0.32;0.32;;;1.90;90.10;;;;;;5009626;28;20057;-68
2023/12/03 11:23:38;;;;;;;1.10;0.98;;;1.80;89.90;;;;;;5035463;28;20053;-69
2023/12/03 11:26:08;;;;;;;0.00;0.00;;;1.90;90.10;;;;;;5007992;28;20055;-68
2023/12/03 11:28:34;;;;;;;0.00;0.00;;;1.90;90.20;;;;;;5003539;28;20046;-68
2023/12/03 11:30:59;;;;;;;0.90;0.90;;;1.90;90.30;;;;;;5004595;28;20420;-68
2023/12/03 11:33:27;;;;;;;0.47;0.47;;;1.90;90.30;;;;;;5019765;28;20141;-68
2023/12/03 11:35:53;;;;;;;0.10;0.10;;;2.00;90.20;;;;;;5027443;28;20164;-68
2023/12/03 11:38:21;;;;;;;0.00;0.00;;;2.00;90.30;;;;;;5023299;28;20540;-68
2023/12/03 11:40:48;;;;;;;4.28;1.10;;;2.10;90.30;;;;;;5010023;28;20119;-68
2023/12/03 11:43:28;;;;;;;1.38;1.27;;;2.00;90.20;;;;;;4994677;28;20048;-70
2023/12/03 11:45:55;;;;;;;0.00;0.00;;;2.00;89.90;;;;;;5012406;28;20161;-68
2023/12/03 11:48:22;;;;;;;1.38;1.27;;;2.00;90.30;;;;;;5006476;28;20060;-68
2023/12/03 11:50:49;;;;;;;1.33;1.27;;;2.20;90.10;;;;;;5028914;28;20149;-68
2023/12/03 11:53:16;;;;;;;0.05;0.05;;;2.20;90.10;;;;;;5020184;28;20048;-68
2023/12/03 11:55:46;;;;;;;0.00;0.00;;;2.20;89.90;;;;;;5037949;28;20056;-68
2023/12/03 11:58:13;;;;;;;1.55;1.20;;;2.20;89.90;;;;;;5034543;28;20469;-68
2023/12/03 12:00:39;;;;;;;0.17;0.17;;;2.30;89.90;;;;;;5023779;28;20100;-68
2023/12/03 12:03:06;;;;;;;0.43;0.43;;;2.30;89.90;;;;;;5008044;28;20072;-68
2023/12/03 12:05:32;;;;;;;0.00;0.00;;;2.40;89.90;;;;;;5005225;28;20053;-68
2023/12/03 12:08:03;;;;;;;0.00;0.00;;;2.40;89.80;;;;;;4993140;28;20046;-69
2023/12/03 12:10:33;;;;;;;1.17;1.10;;;2.50;89.70;;;;;;5002880;28;20056;-68
2023/12/03 12:13:00;;;;;;;5.07;0.80;;;2.50;89.60;;;;;;5033298;28;20041;-68
2023/12/03 12:15:26;;;;;;;0.00;0.00;;;2.50;89.60;;;;;;5037440;28;20092;-68
2023/12/03 12:17:52;;;;;;;1.02;1.02;;;2.60;89.40;;;;;;5010806;28;20083;-69
2023/12/03 12:20:29;;;;;;;0.73;0.73;;;2.60;89.50;;;;;;5009539;28;20049;-68
2023/12/03 12:22:56;;;;;;;0.10;0.10;;;2.60;89.50;;;;;;5012326;28;20124;-69
2023/12/03 12:25:26;;;;;;;0.10;0.10;;;2.70;89.20;;;;;;5044573;28;20063;-69
2023/12/03 12:27:53;;;;;;;0.43;0.43;;;2.70;89.40;;;;;;5035597;28;20392;-69
2023/12/03 12:30:24;;;;;;;0.57;0.57;;;2.80;89.30;;;;;;5012390;28;20099;-68
2023/12/03 12:32:51;;;;;;;0.45;0.45;;;2.80;89.10;;;;;;5002547;28;20081;-69
2023/12/03 12:35:24;;;;;;;0.57;0.57;;;2.80;89.00;;;;;;5028503;28;20069;-69
2023/12/03 12:38:00;;;;;;;3.03;1.63;;;2.70;88.40;;;;;;5027477;28;20103;-69
2023/12/03 12:40:26;;;;;;;0.00;0.00;;;2.60;88.70;;;;;;4993723;28;20052;-69
2023/12/03 12:43:10;;;;;;;0.75;0.75;;;2.60;88.70;;;;;;5010047;28;20049;-69
2023/12/03 12:45:36;;;;;;;0.40;0.40;;;2.60;88.70;;;;;;5027148;28;20065;-69
2023/12/03 12:48:02;;;;;;;0.10;0.10;;;2.60;88.30;;;;;;5009446;28;20053;-69
2023/12/03 12:50:35;;;;;;;0.10;0.10;;;2.60;88.50;;;;;;5005568;28;20115;-68
2023/12/03 12:53:02;;;;;;;0.15;0.15;;;2.60;88.40;;;;;;5008730;28;20111;-70